createdAt,value
2019-04-10T00:02:00.108Z,28.47
2019-04-10T00:04:31.575Z,27.58
2019-04-10T00:07:13.820Z,26.40
2019-04-10T00:09:37.405Z,26.45
2019-04-10T00:12:09.510Z,25.43
2019-04-10T00:14:41.336Z,26.07
2019-04-10T00:17:13.132Z,26.35
2019-04-10T00:19:45.587Z,25.52
2019-04-10T00:22:18.028Z,23.12
2019-04-10T00:24:50.431Z,19.92
2019-04-10T00:27:22.783Z,21.47
2019-04-10T00:29:54.991Z,19.33
2019-04-10T00:32:26.607Z,21.62
2019-04-10T00:34:58.208Z,20.43
2019-04-10T00:37:31.587Z,18.92
2019-04-10T00:40:03.393Z,20.77
2019-04-10T00:42:34.926Z,19.55
2019-04-10T00:45:07.567Z,20.08
2019-04-10T00:47:39.306Z,19.05
2019-04-10T00:50:10.678Z,22.17
2019-04-10T00:52:42.046Z,19.77
2019-04-10T00:55:13.544Z,21.10
2019-04-10T00:57:45.623Z,18.60
2019-04-10T01:00:17.515Z,19.35
2019-04-10T01:02:51.375Z,18.95
2019-04-10T01:05:23.350Z,23.38
2019-04-10T01:07:55.966Z,17.45
2019-04-10T01:10:28.458Z,18.40
2019-04-10T01:13:00.666Z,21.13
2019-04-10T01:15:32.100Z,19.50
2019-04-10T01:18:04.615Z,19.35
2019-04-10T01:20:37.648Z,20.63
2019-04-10T01:23:09.862Z,21.97
2019-04-10T01:25:41.629Z,19.62
2019-04-10T01:28:14.051Z,17.98
2019-04-10T01:30:46.490Z,18.33
2019-04-10T01:33:18.633Z,17.65
2019-04-10T01:35:50.908Z,17.73
2019-04-10T01:38:23.007Z,19.35
2019-04-10T01:40:55.395Z,20.48
2019-04-10T01:43:28.043Z,18.77
2019-04-10T01:46:00.010Z,22.47
2019-04-10T01:48:32.820Z,18.50
2019-04-10T01:51:04.201Z,18.52
2019-04-10T01:53:37.520Z,17.67
2019-04-10T01:56:21.281Z,19.65
2019-04-10T01:58:45.497Z,20.08
2019-04-10T02:01:20.728Z,20.43
2019-04-10T02:03:54.164Z,17.92
2019-04-10T02:06:27.150Z,20.30
2019-04-10T02:09:00.414Z,18.45
2019-04-10T02:11:34.240Z,24.35
2019-04-10T02:14:06.218Z,22.27
2019-04-10T02:16:39.055Z,19.32
2019-04-10T02:19:12.115Z,20.88
2019-04-10T02:21:44.607Z,20.00
2019-04-10T02:24:16.740Z,21.13
2019-04-10T02:26:49.839Z,19.60
2019-04-10T02:29:21.809Z,18.82
2019-04-10T02:31:55.159Z,22.13
2019-04-10T02:34:28.352Z,23.38
2019-04-10T02:37:00.619Z,20.40
2019-04-10T02:39:39.838Z,23.00
2019-04-10T02:42:06.359Z,23.70
2019-04-10T02:44:39.639Z,22.32
2019-04-10T02:47:12.976Z,25.57
2019-04-10T02:52:16.754Z,22.13
2019-04-10T02:54:49.115Z,24.45
2019-04-10T02:57:21.512Z,29.57
2019-04-10T02:59:53.825Z,27.63
2019-04-10T03:02:26.640Z,32.67
2019-04-10T03:05:01.201Z,30.95
2019-04-10T03:07:33.945Z,29.85
2019-04-10T03:12:41.088Z,25.77
2019-04-10T03:15:12.868Z,25.02
2019-04-10T03:17:45.107Z,26.80
2019-04-10T03:20:16.949Z,22.60
2019-04-10T03:22:49.279Z,26.52
2019-04-10T03:25:21.283Z,23.62
2019-04-10T03:27:52.697Z,24.35
2019-04-10T03:30:24.022Z,25.97
2019-04-10T03:33:21.871Z,25.50
2019-04-10T03:35:52.691Z,24.35
2019-04-10T03:38:24.294Z,24.00
2019-04-10T03:40:56.588Z,24.25
2019-04-10T03:43:27.936Z,21.82
2019-04-10T03:45:59.876Z,23.65
2019-04-10T03:48:31.780Z,23.92
2019-04-10T03:51:04.070Z,22.13
2019-04-10T03:53:36.165Z,22.33
2019-04-10T03:56:08.032Z,22.70
2019-04-10T03:58:39.797Z,23.27
2019-04-10T04:01:11.314Z,22.37
2019-04-10T04:03:44.522Z,20.17
2019-04-10T04:09:06.713Z,22.98
2019-04-10T04:15:26.090Z,20.92
2019-04-10T04:18:46.345Z,21.37
2019-04-10T04:21:27.883Z,22.17
2019-04-10T04:24:28.107Z,23.67
2019-04-10T04:27:04.875Z,20.97
2019-04-10T04:29:36.980Z,23.57
2019-04-10T04:32:13.420Z,21.37
2019-04-10T04:34:48.517Z,22.85
2019-04-10T04:37:44.348Z,23.92
2019-04-10T04:43:08.493Z,22.60
2019-04-10T04:45:55.474Z,23.12
2019-04-10T04:48:32.813Z,24.00
2019-04-10T04:51:46.661Z,22.87
2019-04-10T04:54:40.217Z,22.80
2019-04-10T04:57:20.382Z,20.83
2019-04-10T05:00:06.112Z,22.27
2019-04-10T05:02:45.530Z,19.37
2019-04-10T05:06:35.042Z,18.17
2019-04-10T05:10:23.658Z,17.07
2019-04-10T05:13:13.409Z,17.10
2019-04-10T05:16:12.039Z,18.27
2019-04-10T05:19:19.018Z,22.73
2019-04-10T05:22:35.938Z,24.18
2019-04-10T05:25:22.501Z,29.18
2019-04-10T05:28:29.949Z,29.32
2019-04-10T05:31:10.881Z,36.45
2019-04-10T05:34:01.202Z,33.90
2019-04-10T05:36:49.124Z,41.92
2019-04-10T05:39:40.569Z,41.77
2019-04-10T05:42:28.973Z,40.28
2019-04-10T05:48:26.434Z,41.68
2019-04-10T05:51:04.815Z,41.88
2019-04-10T05:53:34.918Z,42.53
2019-04-10T05:56:10.345Z,40.25
2019-04-10T05:58:53.081Z,43.50
2019-04-10T06:01:32.329Z,43.78
2019-04-10T06:34:30.156Z,42.80
2019-04-10T06:37:01.904Z,39.73
2019-04-10T06:39:33.403Z,40.63
2019-04-10T06:42:05.151Z,43.50
2019-04-10T06:44:36.963Z,43.70
2019-04-10T06:47:08.390Z,41.30
2019-04-10T06:49:40.673Z,43.85
2019-04-10T06:52:12.414Z,42.20
2019-04-10T06:54:44.862Z,43.55
2019-04-10T06:57:16.997Z,46.28
2019-04-10T06:59:48.970Z,42.62
2019-04-10T07:02:27.282Z,44.53
2019-04-10T07:04:56.080Z,43.55
2019-04-10T07:07:41.487Z,47.20
2019-04-10T07:09:59.997Z,39.25
2019-04-10T07:12:34.092Z,43.80
2019-04-10T07:15:06.252Z,45.63
2019-04-10T07:17:41.020Z,43.40
2019-04-10T07:20:15.383Z,42.80
2019-04-10T07:25:17.496Z,46.02
2019-04-10T07:27:48.903Z,43.52
2019-04-10T07:30:24.111Z,42.58
2019-04-10T07:32:53.735Z,42.40
2019-04-10T07:35:25.781Z,42.03
2019-04-10T07:37:58.465Z,45.23
2019-04-10T07:40:33.059Z,45.10
2019-04-10T07:43:04.199Z,43.45
2019-04-10T07:45:36.996Z,43.38
2019-04-10T07:48:08.771Z,41.48
2019-04-10T07:50:42.025Z,41.33
2019-04-10T07:53:14.852Z,38.50
2019-04-10T07:55:58.438Z,40.10
2019-04-10T07:58:21.481Z,43.50
2019-04-10T08:00:54.095Z,40.35
2019-04-10T08:03:25.409Z,45.30
2019-04-10T08:05:57.998Z,39.63
2019-04-10T08:08:30.987Z,41.92
2019-04-10T08:11:02.642Z,46.15
2019-04-10T08:13:34.459Z,44.93
2019-04-10T08:16:06.642Z,42.48
2019-04-10T08:18:38.010Z,43.08
2019-04-10T08:21:09.812Z,42.43
2019-04-10T08:23:42.375Z,38.60
2019-04-10T08:26:14.329Z,43.08
2019-04-10T08:28:46.048Z,44.85
2019-04-10T08:31:17.330Z,42.10
2019-04-10T08:33:48.602Z,44.58
2019-04-10T08:36:21.462Z,41.95
2019-04-10T08:38:54.997Z,42.85
2019-04-10T08:41:27.114Z,45.48
2019-04-10T08:43:59.908Z,43.90
2019-04-10T08:46:35.747Z,42.43
2019-04-10T08:49:07.815Z,43.38
2019-04-10T08:51:39.496Z,44.10
2019-04-10T08:54:12.039Z,40.88
2019-04-10T08:56:49.215Z,42.80
2019-04-10T08:59:23.583Z,46.88
2019-04-10T09:01:55.749Z,44.42
2019-04-10T09:04:27.062Z,42.65
2019-04-10T09:07:01.279Z,41.83
2019-04-10T09:09:31.927Z,40.28
2019-04-10T09:12:03.263Z,41.18
2019-04-10T09:14:37.076Z,44.33
2019-04-10T09:17:09.024Z,41.28
2019-04-10T09:19:40.319Z,44.53
2019-04-10T09:22:14.068Z,41.85
2019-04-10T09:24:46.727Z,44.98
2019-04-10T09:27:19.150Z,43.73
2019-04-10T09:29:52.641Z,39.95
2019-04-10T09:34:54.176Z,39.63
2019-04-10T09:37:28.225Z,49.20
2019-04-10T09:40:00.103Z,44.10
2019-04-10T09:42:33.283Z,49.67
2019-04-10T09:45:06.340Z,51.10
2019-04-10T09:47:38.062Z,46.60
2019-04-10T09:50:09.738Z,46.63
2019-04-10T09:52:41.077Z,47.65
2019-04-10T09:55:13.918Z,49.00
2019-04-10T09:57:47.554Z,44.23
2019-04-10T10:00:20.001Z,45.15
2019-04-10T10:02:51.534Z,46.50
2019-04-10T10:05:23.341Z,45.50
2019-04-10T10:07:56.163Z,46.63
2019-04-10T10:10:29.060Z,48.98
2019-04-10T10:13:01.196Z,49.58
2019-04-10T10:15:33.473Z,44.80
2019-04-10T10:18:05.479Z,45.05
2019-04-10T10:20:37.692Z,47.25
2019-04-10T10:23:09.622Z,43.02
2019-04-10T10:25:42.190Z,46.13
2019-04-10T10:28:13.869Z,44.48
2019-04-10T10:30:45.235Z,45.78
2019-04-10T10:33:17.799Z,49.60
2019-04-10T10:35:49.605Z,50.30
2019-04-10T10:38:21.186Z,48.30
2019-04-10T10:40:53.006Z,44.18
2019-04-10T10:43:24.923Z,43.83
2019-04-10T10:45:56.272Z,45.17
2019-04-10T10:48:29.478Z,45.12
2019-04-10T10:51:02.416Z,48.30
2019-04-10T10:53:34.568Z,43.68
2019-04-10T10:56:06.872Z,47.67
2019-04-10T10:58:38.226Z,49.73
2019-04-10T11:01:09.817Z,48.35
2019-04-10T11:03:42.455Z,43.70
2019-04-10T11:06:14.954Z,43.75
2019-04-10T11:08:48.291Z,47.83
2019-04-10T11:11:20.075Z,49.38
2019-04-10T11:13:52.267Z,52.53
2019-04-10T11:16:24.844Z,47.65
2019-04-10T11:18:58.998Z,48.30
2019-04-10T11:21:30.556Z,52.78
2019-04-10T11:24:03.074Z,58.13
2019-04-10T11:26:36.165Z,47.15
2019-04-10T11:29:08.117Z,49.55
2019-04-10T11:31:39.707Z,47.35
2019-04-10T11:34:11.378Z,52.15
2019-04-10T11:36:43.939Z,53.80
2019-04-10T11:39:22.544Z,50.98
2019-04-10T11:41:50.479Z,54.88
2019-04-10T11:44:21.876Z,51.58
2019-04-10T11:46:55.637Z,48.38
2019-04-10T11:49:28.961Z,52.13
2019-04-10T11:54:37.200Z,52.45
2019-04-10T11:57:06.929Z,47.93
2019-04-10T11:59:41.070Z,54.53
2019-04-10T12:02:14.434Z,52.65
2019-04-10T12:04:53.716Z,52.60
2019-04-10T12:07:52.959Z,50.52
2019-04-10T12:12:26.065Z,52.73
2019-04-10T12:14:57.536Z,49.90
2019-04-10T12:17:30.460Z,48.47
2019-04-10T12:20:02.881Z,50.17
2019-04-10T12:22:35.867Z,51.63
2019-04-10T12:25:07.651Z,51.65
2019-04-10T12:27:39.105Z,51.73
2019-04-10T12:30:13.151Z,49.20
2019-04-10T12:32:45.979Z,51.00
2019-04-10T12:35:18.218Z,49.23
2019-04-10T12:37:59.475Z,47.55
2019-04-10T12:40:23.943Z,50.50
2019-04-10T12:42:56.657Z,47.43
2019-04-10T12:45:28.368Z,51.55
2019-04-10T12:48:00.185Z,48.95
2019-04-10T12:50:32.764Z,51.28
2019-04-10T12:53:05.330Z,53.33
2019-04-10T12:55:37.227Z,50.17
2019-04-10T12:58:13.609Z,49.93
2019-04-10T13:00:42.942Z,50.15
2019-04-10T13:03:14.651Z,49.60
2019-04-10T13:05:47.450Z,48.08
2019-04-10T13:08:25.642Z,47.17
2019-04-10T13:10:54.020Z,43.42
2019-04-10T13:13:26.149Z,48.58
2019-04-10T13:15:59.391Z,43.30
2019-04-10T13:18:32.343Z,49.90
2019-04-10T13:21:04.250Z,47.73
2019-04-10T13:23:38.523Z,48.60
2019-04-10T13:26:10.864Z,52.65
2019-04-10T13:28:43.456Z,47.30
2019-04-10T13:31:15.627Z,50.10
2019-04-10T13:33:48.929Z,49.03
2019-04-10T13:36:21.781Z,50.33
2019-04-10T13:38:54.707Z,46.92
2019-04-10T13:41:26.204Z,47.35
2019-04-10T13:44:02.360Z,50.43
2019-04-10T13:46:35.303Z,51.42
2019-04-10T13:49:07.412Z,47.35
2019-04-10T13:51:39.291Z,56.77
2019-04-10T13:54:13.751Z,53.28
2019-04-10T13:56:45.383Z,49.05
2019-04-10T13:59:20.695Z,50.28
2019-04-10T14:01:52.760Z,52.17
2019-04-10T14:04:25.135Z,47.17
2019-04-10T14:06:59.721Z,47.33
2019-04-10T14:09:41.461Z,53.05
2019-04-10T14:12:05.969Z,52.55
2019-04-10T14:14:37.599Z,49.40
2019-04-10T14:17:09.510Z,55.83
2019-04-10T14:19:41.496Z,49.48
2019-04-10T14:22:14.254Z,51.58
2019-04-10T14:24:48.206Z,50.78
2019-04-10T14:27:22.884Z,50.73
2019-04-10T14:29:54.755Z,49.67
2019-04-10T14:32:35.624Z,49.25
2019-04-10T14:35:08.546Z,52.13
2019-04-10T14:37:41.889Z,51.23
2019-04-10T14:40:14.331Z,48.38
2019-04-10T14:42:45.698Z,53.50
2019-04-10T14:45:19.420Z,52.50
2019-04-10T14:47:51.777Z,51.10
2019-04-10T14:50:24.054Z,56.87
2019-04-10T14:52:55.715Z,55.33
2019-04-10T14:55:27.691Z,51.18
2019-04-10T14:57:59.829Z,52.62
2019-04-10T15:00:42.631Z,49.80
2019-04-10T15:03:14.462Z,51.30
2019-04-10T15:05:50.983Z,49.10
2019-04-10T15:08:20.383Z,52.85
2019-04-10T15:10:51.699Z,52.40
2019-04-10T15:13:24.418Z,51.77
2019-04-10T15:15:56.746Z,53.98
2019-04-10T15:18:28.862Z,53.13
2019-04-10T15:21:00.749Z,52.27
2019-04-10T15:23:32.295Z,51.85
2019-04-10T15:26:03.846Z,55.52
2019-04-10T15:28:36.062Z,54.42
2019-04-10T15:31:07.489Z,50.48
2019-04-10T15:33:39.536Z,54.53
2019-04-10T15:36:11.603Z,57.45
2019-04-10T15:38:44.363Z,51.55
2019-04-10T15:41:16.902Z,52.33
2019-04-10T15:43:49.823Z,55.78
2019-04-10T15:46:21.666Z,60.55
2019-04-10T15:48:53.511Z,56.35
2019-04-10T15:51:25.323Z,57.88
2019-04-10T15:53:59.116Z,51.28
2019-04-10T15:56:30.773Z,58.80
2019-04-10T15:59:02.043Z,59.15
2019-04-10T16:01:35.069Z,50.90
2019-04-10T16:04:08.110Z,51.05
2019-04-10T16:06:39.809Z,56.15
2019-04-10T16:09:13.223Z,55.80
2019-04-10T16:12:10.155Z,56.63
2019-04-10T16:14:42.772Z,52.88
2019-04-10T16:17:46.033Z,54.73
2019-04-10T16:20:31.927Z,52.87
2019-04-10T16:23:38.541Z,53.23
2019-04-10T16:26:11.154Z,54.75
2019-04-10T16:28:43.105Z,60.95
2019-04-10T16:31:16.234Z,54.00
2019-04-10T16:33:48.366Z,52.53
2019-04-10T16:36:21.304Z,54.55
2019-04-10T16:38:53.525Z,55.85
2019-04-10T16:41:28.102Z,58.13
2019-04-10T16:43:58.706Z,54.93
2019-04-10T16:46:30.524Z,51.65
2019-04-10T16:49:01.986Z,54.10
2019-04-10T16:51:34.417Z,55.80
2019-04-10T16:54:09.201Z,52.00
2019-04-10T16:56:42.166Z,59.00
2019-04-10T16:59:14.823Z,51.37
2019-04-10T17:01:47.146Z,58.23
2019-04-10T17:04:18.898Z,56.10
2019-04-10T17:06:50.562Z,51.35
2019-04-10T17:09:26.853Z,51.48
2019-04-10T17:11:59.002Z,64.22
2019-04-10T17:14:32.839Z,54.30
2019-04-10T17:17:04.747Z,54.93
2019-04-10T17:19:46.632Z,56.90
2019-04-10T17:22:11.079Z,53.85
2019-04-10T17:24:42.735Z,54.77
2019-04-10T17:27:15.174Z,56.37
2019-04-10T17:29:47.334Z,61.05
2019-04-10T17:32:19.402Z,56.42
2019-04-10T17:34:51.386Z,57.45
2019-04-10T17:37:24.069Z,55.88
2019-04-10T17:39:57.755Z,55.73
2019-04-10T17:42:32.373Z,57.83
2019-04-10T17:45:06.506Z,55.35
2019-04-10T17:47:40.943Z,56.48
2019-04-10T17:50:20.270Z,58.73
2019-04-10T17:52:53.271Z,56.02
2019-04-10T17:57:58.155Z,60.23
2019-04-10T18:00:43.039Z,61.28
2019-04-10T18:03:18.352Z,63.00
2019-04-10T18:05:49.374Z,58.70
2019-04-10T18:09:17.972Z,59.38
2019-04-10T18:31:03.315Z,59.98
2019-04-10T18:33:36.892Z,62.00
2019-04-10T18:36:09.216Z,61.63
2019-04-10T18:38:41.785Z,64.35
2019-04-10T18:41:13.902Z,62.48
2019-04-10T18:43:45.242Z,67.65
2019-04-10T18:46:19.508Z,61.70
2019-04-10T18:48:49.920Z,60.67
2019-04-10T18:51:22.019Z,60.15
2019-04-10T18:53:53.743Z,61.90
2019-04-10T18:56:26.988Z,57.78
2019-04-10T18:59:06.283Z,61.95
2019-04-10T19:02:05.896Z,60.63
2019-04-10T19:04:43.563Z,63.45
2019-04-10T19:07:15.393Z,65.42
2019-04-10T19:09:47.319Z,61.90
2019-04-10T19:12:18.962Z,63.65
2019-04-10T19:14:50.799Z,62.35
2019-04-10T19:17:22.598Z,61.58
2019-04-10T19:19:54.676Z,58.40
2019-04-10T19:22:28.432Z,58.68
2019-04-10T19:25:00.697Z,54.18
2019-04-10T19:27:32.184Z,58.53
2019-04-10T19:30:06.635Z,60.25
2019-04-10T19:32:38.598Z,62.15
2019-04-10T19:35:10.921Z,62.33
2019-04-10T19:37:43.039Z,62.17
2019-04-10T19:40:14.467Z,62.75
2019-04-10T19:42:46.900Z,58.13
2019-04-10T19:45:19.561Z,57.80
2019-04-10T19:47:52.785Z,57.85
2019-04-10T19:52:55.390Z,61.53
2019-04-10T19:55:27.466Z,62.75
2019-04-10T19:57:59.669Z,62.08
2019-04-10T20:00:34.843Z,60.03
2019-04-10T20:03:07.744Z,60.00
2019-04-10T20:05:41.489Z,58.52
2019-04-10T20:08:13.345Z,64.00
2019-04-10T20:10:45.716Z,61.05
2019-04-10T20:13:18.615Z,58.77
2019-04-10T20:15:50.942Z,62.43
2019-04-10T20:18:22.808Z,63.53
2019-04-10T20:20:55.475Z,66.65
2019-04-10T20:23:27.895Z,62.40
2019-04-10T20:26:00.890Z,67.00
2019-04-10T20:31:07.005Z,63.95
2019-04-10T20:33:38.855Z,62.55
2019-04-10T20:36:11.031Z,64.32
2019-04-10T20:38:43.029Z,60.58
2019-04-10T20:41:16.203Z,66.20
2019-04-10T20:43:47.701Z,66.60
2019-04-10T20:46:20.214Z,66.17
2019-04-10T20:48:51.435Z,63.73
2019-04-10T20:51:23.232Z,63.75
2019-04-10T20:53:55.841Z,63.80
2019-04-10T20:56:28.130Z,62.62
2019-04-10T20:58:59.782Z,62.88
2019-04-10T21:01:32.987Z,61.95
2019-04-10T21:04:05.296Z,63.45
2019-04-10T21:06:39.546Z,62.08
2019-04-10T21:11:41.832Z,65.42
2019-04-10T21:14:13.722Z,61.28
2019-04-10T21:16:45.373Z,65.45
2019-04-10T21:19:17.064Z,64.77
2019-04-10T21:21:49.153Z,65.87
2019-04-10T21:24:21.010Z,67.60
2019-04-10T21:26:53.115Z,65.28
2019-04-10T21:29:42.148Z,64.12
2019-04-10T21:32:26.206Z,60.67
2019-04-10T21:34:58.218Z,64.90
2019-04-10T21:37:30.498Z,62.38
2019-04-10T21:40:02.732Z,66.90
2019-04-10T21:42:34.576Z,63.63
2019-04-10T21:45:07.403Z,59.55
2019-04-10T21:47:38.785Z,62.75
2019-04-10T21:50:11.098Z,66.90
2019-04-10T21:52:43.469Z,61.08
2019-04-10T21:55:15.076Z,63.80
2019-04-10T21:57:48.842Z,59.95
2019-04-10T22:00:27.990Z,65.55
2019-04-10T22:03:01.135Z,66.20
2019-04-10T22:05:34.611Z,63.73
2019-04-10T22:08:19.761Z,63.68
2019-04-10T22:10:52.397Z,62.40
2019-04-10T22:13:24.042Z,63.23
2019-04-10T22:15:55.471Z,62.80
2019-04-10T22:18:27.492Z,62.60
2019-04-10T22:21:00.509Z,67.78
2019-04-10T22:23:32.291Z,66.60
2019-04-10T22:26:04.271Z,60.20
2019-04-10T22:28:35.789Z,64.12
2019-04-10T22:31:07.427Z,65.28
2019-04-10T22:33:38.826Z,66.40
2019-04-10T22:36:10.790Z,68.30
2019-04-10T22:38:42.395Z,63.50
2019-04-10T22:41:23.621Z,67.00
2019-04-10T22:43:47.283Z,63.95
2019-04-10T22:46:19.312Z,66.53
2019-04-10T22:48:50.693Z,64.12
2019-04-10T22:51:24.572Z,65.00
2019-04-10T22:53:57.600Z,64.62
2019-04-10T22:56:31.502Z,62.83
2019-04-10T22:59:03.952Z,68.20
2019-04-10T23:01:35.960Z,63.13
2019-04-10T23:04:08.026Z,65.30
2019-04-10T23:06:39.669Z,63.63
2019-04-10T23:09:13.841Z,63.73
2019-04-10T23:11:46.879Z,64.12
2019-04-10T23:14:20.686Z,66.42
2019-04-10T23:16:53.118Z,63.45
2019-04-10T23:19:25.809Z,64.83
2019-04-10T23:21:57.243Z,65.37
2019-04-10T23:24:29.838Z,63.40
2019-04-10T23:27:02.198Z,65.20
2019-04-10T23:29:35.993Z,65.70
2019-04-10T23:32:07.556Z,65.65
2019-04-10T23:34:43.279Z,63.00
2019-04-10T23:37:15.020Z,65.25
2019-04-10T23:39:46.811Z,61.92
2019-04-10T23:42:19.127Z,60.05
2019-04-10T23:44:51.328Z,65.00
2019-04-10T23:47:24.265Z,61.18
2019-04-10T23:49:55.597Z,68.25
2019-04-10T23:52:27.601Z,64.80
2019-04-10T23:54:59.677Z,61.05
2019-04-10T23:57:31.523Z,60.92
